Witamy     NOTAM     FEEDBACK     Informacje     Wydarzenia     O nas      FIR Warszawa      Kontrolerzy     Piloci     Lotniska     Pliki     Linki     Forum    

Radom - Sadków

Port lotniczy Radom (Radom-Sadków) (kod IATA: RDO, kod ICAO: EPRA), od 2014 roku lotnisko cywilne znajdujące się zaledwie 4km od centrum miasta przy drodze krajowej numer 12. Do 2015 regularnie co dwa lata odbywały sie tutaj pokazy lotnicze Radom Air Show. Aktualnie (marzec 2017) z lotniska operuje linia SprintAir na trasach do Gdańska, Pragi, Lwowa i Wrocławia.

Lotnisko posiada jedną drogę startową o długości 2000m i szerokości 45m o kierunkach 07/25 i może obsługiwać statki powietrzne w kategoriach od A do D. Na lotnisku znajduje się radiolatarnia DVOR/DME RAD (113,85MHz). Lotnisko wyposazone jest w dwa stanowiska postojowe dla statków powietrznych typu C.

Mapy [19]
NOTAM [1]
 ID Obowiązuje od Obowiązuje do Wiadomość
  A0236/18  2018-12-05
14:05
2019-02-04
23:59
TWY S CLSD.

NOTAMs are maintained by Operational Officer (ACCPL3) of Polish VACC. VATSIM use only. Interface is provided by euroutepro.com
Scenerie [2]
Pozycje ATC
 Pozycja ATC Częstotliwość Callsign
 Radom Wieża 122.050 EPRA_TWR
Pogoda

METAR: EPRA 181400Z 31010KT 270V340 9999 SCT020 BKN039 01/M01 Q1012

Raport TAF dla tego lotniska jest niedostepny lub bardzo nieaktualny.


METARs by VATSIM.net. TAFs by NOAA.gov
Aktualny ruch
Przyloty
-------------
Odloty
-------------
 
© 2001 Polish VACC
[logowanie]